createdAt,value
2023-01-23T00:01:18.841Z,2.75
2023-01-23T00:06:16.524Z,2.76
2023-01-23T00:11:17.686Z,2.80
2023-01-23T00:16:18.125Z,2.63
2023-01-23T00:21:17.415Z,2.66
2023-01-23T00:26:17.870Z,2.80
2023-01-23T00:31:25.436Z,2.85
2023-01-23T00:36:21.996Z,2.87
2023-01-23T00:41:18.596Z,2.86
2023-01-23T00:46:15.042Z,2.80
2023-01-23T00:51:11.653Z,2.73
2023-01-23T00:56:09.018Z,2.65
2023-01-23T01:01:05.448Z,2.77
2023-01-23T01:06:02.333Z,2.81
2023-01-23T01:10:59.016Z,2.76
2023-01-23T01:15:55.494Z,2.77
2023-01-23T01:20:51.930Z,2.58
2023-01-23T01:25:48.327Z,2.40
2023-01-23T01:30:44.753Z,2.47
2023-01-23T01:35:41.440Z,2.57
2023-01-23T01:40:38.007Z,2.53
2023-01-23T01:45:56.016Z,2.50
2023-01-23T01:50:53.231Z,2.36
2023-01-23T01:55:49.959Z,2.31
2023-01-23T02:00:46.427Z,2.26
2023-01-23T02:05:47.313Z,2.45
2023-01-23T02:10:44.099Z,2.28
2023-01-23T02:15:41.334Z,2.18
2023-01-23T02:20:38.013Z,2.33
2023-01-23T02:25:44.164Z,2.33
2023-01-23T02:30:42.588Z,2.12
2023-01-23T02:35:39.352Z,2.16
2023-01-23T02:40:39.847Z,2.35
2023-01-23T02:45:36.461Z,2.38
2023-01-23T02:50:32.888Z,2.42
2023-01-23T02:55:33.496Z,2.30
2023-01-23T03:00:30.098Z,2.12
2023-01-23T03:05:26.844Z,2.08
2023-01-23T03:10:23.210Z,2.00
2023-01-23T03:15:19.622Z,1.89
2023-01-23T03:20:20.119Z,1.84
2023-01-23T03:25:17.013Z,2.00
2023-01-23T03:30:16.004Z,2.01
2023-01-23T03:35:16.670Z,1.97
2023-01-23T03:40:37.108Z,2.00
2023-01-23T03:45:33.873Z,1.97
2023-01-23T03:50:30.427Z,2.07
2023-01-23T03:55:26.799Z,2.08
2023-01-23T04:00:23.387Z,2.10
2023-01-23T04:05:19.843Z,2.02
2023-01-23T04:10:16.390Z,2.03
2023-01-23T04:15:12.823Z,2.03
2023-01-23T04:20:10.006Z,2.07
2023-01-23T04:25:07.088Z,1.84
2023-01-23T04:30:04.023Z,1.86
2023-01-23T04:35:00.542Z,1.93
2023-01-23T04:39:57.054Z,2.02
2023-01-23T04:44:53.425Z,2.00
2023-01-23T04:49:50.180Z,2.03
2023-01-23T04:54:46.542Z,1.89
2023-01-23T04:59:42.963Z,2.09
2023-01-23T05:04:39.335Z,1.98
2023-01-23T05:09:35.790Z,2.10
2023-01-23T05:14:32.266Z,2.05
2023-01-23T05:19:28.724Z,2.07
2023-01-23T05:24:25.299Z,2.07
2023-01-23T05:29:21.864Z,2.15
2023-01-23T05:34:18.259Z,2.11
2023-01-23T05:39:14.701Z,2.13
2023-01-23T05:44:11.235Z,2.15
2023-01-23T05:49:07.691Z,2.18
2023-01-23T05:54:04.332Z,2.21
2023-01-23T05:59:00.764Z,2.18
2023-01-23T06:03:57.213Z,2.24
2023-01-23T06:08:53.618Z,2.22
2023-01-23T06:13:50.039Z,2.22
2023-01-23T06:18:46.425Z,2.19
2023-01-23T06:23:42.857Z,2.23
2023-01-23T06:28:39.668Z,2.24
2023-01-23T06:33:38.902Z,2.23
2023-01-23T06:38:35.583Z,2.25
2023-01-23T06:43:32.025Z,2.25
2023-01-23T06:48:28.443Z,2.28
2023-01-23T06:53:24.848Z,2.10
2023-01-23T06:58:21.364Z,2.22
2023-01-23T07:03:17.844Z,2.16
2023-01-23T07:08:14.443Z,2.24
2023-01-23T07:13:11.582Z,2.26
2023-01-23T07:18:09.396Z,2.21
2023-01-23T07:23:05.873Z,2.25
2023-01-23T07:28:02.621Z,2.29
2023-01-23T07:32:59.368Z,2.26
2023-01-23T07:37:56.262Z,2.27
2023-01-23T07:42:52.705Z,2.35
2023-01-23T07:47:49.110Z,2.31
2023-01-23T07:52:45.588Z,2.36
2023-01-23T07:57:42.491Z,2.35
2023-01-23T08:02:39.110Z,2.38
2023-01-23T08:07:35.587Z,2.36
2023-01-23T08:12:32.058Z,2.39
2023-01-23T08:17:28.439Z,2.39
2023-01-23T08:22:24.891Z,2.26
2023-01-23T08:27:21.486Z,2.37
2023-01-23T08:32:17.867Z,2.39
2023-01-23T08:37:14.256Z,2.55
2023-01-23T08:42:10.675Z,2.50
2023-01-23T08:47:07.137Z,2.62
2023-01-23T08:52:05.757Z,2.54
2023-01-23T08:57:02.833Z,2.56
2023-01-23T09:01:59.251Z,2.57
2023-01-23T09:06:55.652Z,2.69
2023-01-23T09:11:52.092Z,2.62
2023-01-23T09:16:48.775Z,2.68
2023-01-23T09:21:45.319Z,2.74
2023-01-23T09:26:43.790Z,2.88
2023-01-23T09:31:40.288Z,2.89
2023-01-23T09:36:43.375Z,2.88
2023-01-23T09:41:41.020Z,2.90
2023-01-23T09:46:49.895Z,2.84
2023-01-23T09:52:05.481Z,2.94
2023-01-23T09:57:11.453Z,3.02
2023-01-23T10:02:20.098Z,2.97
2023-01-23T10:07:22.725Z,3.15
2023-01-23T10:12:40.682Z,3.20
2023-01-23T10:17:51.600Z,3.20
2023-01-23T10:23:23.460Z,3.05
2023-01-23T10:28:40.163Z,3.32
2023-01-23T10:33:45.508Z,3.34
2023-01-23T10:38:49.532Z,3.34
2023-01-23T10:43:51.523Z,3.40
2023-01-23T10:48:50.705Z,3.33
2023-01-23T10:54:06.205Z,3.51
2023-01-23T10:59:05.324Z,3.47
2023-01-23T11:04:18.244Z,3.47
2023-01-23T11:09:23.672Z,3.42
2023-01-23T11:14:22.606Z,3.43
2023-01-23T11:19:22.381Z,3.43
2023-01-23T11:24:27.710Z,3.67
2023-01-23T11:29:42.437Z,3.62
2023-01-23T11:34:45.589Z,3.61
2023-01-23T11:39:53.618Z,3.57
2023-01-23T11:44:51.106Z,3.60
2023-01-23T11:50:14.188Z,3.74
2023-01-23T11:55:38.839Z,3.78
2023-01-23T12:01:03.396Z,3.66
2023-01-23T12:12:06.704Z,3.83
2023-01-23T12:17:28.105Z,3.87
2023-01-23T12:22:34.564Z,3.82
2023-01-23T12:27:44.979Z,3.72
2023-01-23T12:33:09.191Z,3.88
2023-01-23T12:38:34.526Z,3.89
2023-01-23T12:44:06.635Z,3.95
2023-01-23T12:49:38.787Z,3.85
2023-01-23T12:54:42.571Z,3.77
2023-01-23T13:00:05.221Z,3.82
2023-01-23T13:05:21.551Z,3.81
2023-01-23T13:10:23.877Z,3.84
2023-01-23T13:15:38.780Z,3.92
2023-01-23T13:21:12.149Z,3.96
2023-01-23T13:26:22.814Z,3.97
2023-01-23T13:31:40.279Z,3.99
2023-01-23T13:36:37.736Z,3.90
2023-01-23T13:41:34.248Z,3.79
2023-01-23T14:24:23.080Z,3.40
2023-01-23T14:29:24.247Z,3.58
2023-01-23T14:34:22.974Z,3.68
2023-01-23T14:39:23.083Z,3.56
2023-01-23T14:44:23.519Z,3.59
2023-01-23T14:49:29.654Z,3.76
2023-01-23T14:54:31.803Z,3.71
2023-01-23T14:59:41.422Z,3.72
2023-01-23T15:04:37.897Z,3.68
2023-01-23T15:09:41.401Z,3.70
2023-01-23T15:14:39.705Z,3.57
2023-01-23T15:19:37.781Z,3.61
2023-01-23T15:24:34.351Z,3.52
2023-01-23T15:29:31.670Z,3.57
2023-01-23T15:34:34.172Z,3.59
2023-01-23T15:39:49.246Z,3.58
2023-01-23T15:44:45.732Z,3.40
2023-01-23T15:49:42.264Z,3.52
2023-01-23T15:54:38.985Z,3.41
2023-01-23T15:59:36.721Z,3.37
2023-01-23T16:04:33.623Z,3.32
2023-01-23T16:09:33.578Z,3.40
2023-01-23T16:14:30.091Z,3.44
2023-01-23T16:19:26.655Z,3.43
2023-01-23T16:24:24.092Z,3.41
2023-01-23T16:29:32.275Z,3.45
2023-01-23T16:34:29.019Z,3.47
2023-01-23T16:39:27.314Z,3.43
2023-01-23T16:44:24.056Z,3.44
2023-01-23T16:49:21.050Z,3.41
2023-01-23T16:54:21.272Z,3.45
2023-01-23T16:59:25.985Z,3.38
2023-01-23T17:04:22.477Z,3.30
2023-01-23T17:09:19.172Z,3.30
2023-01-23T17:14:22.529Z,3.26
2023-01-23T17:19:30.760Z,3.32
2023-01-23T17:24:27.626Z,3.22
2023-01-23T17:29:24.600Z,3.29
2023-01-23T17:34:24.573Z,3.29
2023-01-23T17:39:21.441Z,3.21
2023-01-23T17:44:17.925Z,3.25
2023-01-23T17:49:30.683Z,3.31
2023-01-23T17:54:27.390Z,3.28
2023-01-23T17:59:23.965Z,3.32
2023-01-23T18:04:22.475Z,3.33
2023-01-23T18:09:19.122Z,3.32
2023-01-23T18:14:30.161Z,3.26
2023-01-23T18:19:27.534Z,3.23
2023-01-23T18:24:30.446Z,3.23
2023-01-23T18:29:45.727Z,3.10
2023-01-23T18:35:04.292Z,3.21
2023-01-23T18:40:12.810Z,3.23
2023-01-23T18:45:23.555Z,3.21
2023-01-23T18:50:25.208Z,3.21
2023-01-23T18:55:52.696Z,3.18
2023-01-23T19:00:53.856Z,3.14
2023-01-23T19:05:50.582Z,3.21
2023-01-23T19:10:49.282Z,3.17
2023-01-23T19:15:57.737Z,3.17
2023-01-23T19:21:14.430Z,3.23
2023-01-23T19:26:15.003Z,3.16
2023-01-23T19:31:23.281Z,3.21
2023-01-23T19:36:21.628Z,3.17
2023-01-23T19:41:24.060Z,3.19
2023-01-23T19:46:22.337Z,3.09
2023-01-23T19:51:21.564Z,3.11
2023-01-23T19:56:18.182Z,3.12
2023-01-23T20:01:34.171Z,3.05
2023-01-23T20:06:31.021Z,3.16
2023-01-23T20:11:27.447Z,3.13
2023-01-23T20:16:24.965Z,3.08
2023-01-23T20:21:23.782Z,3.14
2023-01-23T20:26:21.265Z,3.05
2023-01-23T20:31:17.907Z,3.12
2023-01-23T20:36:15.812Z,3.07
2023-01-23T20:41:16.013Z,3.10
2023-01-23T20:46:14.062Z,3.14
2023-01-23T20:51:11.588Z,3.12
2023-01-23T20:56:19.815Z,3.10
2023-01-23T21:01:18.323Z,3.11
2023-01-23T21:06:15.350Z,3.08
2023-01-23T21:11:19.956Z,3.09
2023-01-23T21:16:17.542Z,3.07
2023-01-23T21:21:16.824Z,3.13
2023-01-23T21:26:13.278Z,3.02
2023-01-23T21:31:16.041Z,3.04
2023-01-23T21:36:14.029Z,3.10
2023-01-23T21:41:10.413Z,3.00
2023-01-23T21:46:07.753Z,2.99
2023-01-23T21:51:14.087Z,2.96
2023-01-23T21:56:13.065Z,2.91
2023-01-23T22:01:33.554Z,2.94
2023-01-23T22:06:31.412Z,2.94
2023-01-23T22:11:28.257Z,2.87
2023-01-23T22:16:35.971Z,2.93
2023-01-23T22:21:41.312Z,2.93
2023-01-23T22:26:38.062Z,2.95
2023-01-23T22:31:34.692Z,2.94
2023-01-23T22:36:31.149Z,2.92
2023-01-23T22:41:28.504Z,2.87
2023-01-23T22:46:25.091Z,2.94
2023-01-23T22:51:24.851Z,2.90
2023-01-23T22:56:22.563Z,2.91
2023-01-23T23:01:19.661Z,2.83
2023-01-23T23:06:17.114Z,2.91
2023-01-23T23:11:27.980Z,2.80
2023-01-23T23:16:27.114Z,2.85
2023-01-23T23:21:25.516Z,2.78
2023-01-23T23:26:21.950Z,2.77
2023-01-23T23:31:19.097Z,2.81
2023-01-23T23:36:15.644Z,2.86
2023-01-23T23:41:14.894Z,2.81
2023-01-23T23:46:12.914Z,2.82
2023-01-23T23:51:12.855Z,2.78
2023-01-23T23:56:13.904Z,2.74
